Weather History for Arctic Village, AK

Change the Weather History Date:

Thursday, September 18, 2014

  Actual Average Record
Temperature  
Mean Temperature 43 °F -  
Max Temperature 51 °F 41 °F 53 °F (1988)
Min Temperature 35 °F 20 °F 5 °F (1992)
Degree Days  
Heating Degree Days 22    
Moisture  
Dew Point 38 °F    
Average Humidity 82    
Maximum Humidity 100    
Minimum Humidity 58    
Precipitation  
Precipitation 0.00 in - - ()
Sea Level Pressure  
Sea Level Pressure 29.33 in    
Wind  
Wind Speed 6 mph (ENE)    
Max Wind Speed 12 mph    
Max Gust Speed -    
Visibility 9 miles    
Events      
Averages and records for this station are not official NWS values.
T = Trace of Precipitation, MM = Missing Value Source: NWS Daily Summary

Daily Weather History Graph

Daily Weather History Graph

Search for Another Location

Airport:

Trip Planner

Search our weather history database for the weather conditions in past years. The results will help you decide how hot, cold, wet, or windy it might be!

Date:

Astronomy

Sep. 18, 2014 Rise Set
Actual Time 7:10 AM AKDT 8:00 PM AKDT
Civil Twilight 6:12 AM AKDT 8:57 PM AKDT
Nautical Twilight 4:58 AM AKDT 10:10 PM AKDT
Astronomical Twilight 3:15 AM AKDT 11:49 PM AKDT
Moon 12:07 AM AKDT (9/18) 6:42 PM AKDT (9/18)
Length of Visible Light 14h 44m
Length of Day
12h 50m
Waning Crescent, 25% of the Moon is Illuminated
Sep 18
Waning Crescent
Sep 23
New
Oct 1
First Quarter
Oct 8
Full
Oct 15
Last Quarter

Hourly Weather History & Observations

Time (AKDT) Temp. Windchill Dew Point Humidity Pressure Visibility Wind Dir Wind Speed Gust Speed Precip Events Conditions
12:16 AM 44.6 °F 41.4 °F 42.8 °F 93% 29.38 in 10.0 mi NNE 5.8 mph - N/A   Overcast
12:36 AM 42.8 °F 39.3 °F 42.8 °F 100% 29.37 in 10.0 mi North 5.8 mph - N/A   Mostly Cloudy
12:56 AM 42.8 °F 40.1 °F 42.8 °F 100% 29.37 in 10.0 mi NNE 4.6 mph - N/A   Overcast
1:16 AM 42.8 °F 39.3 °F 42.8 °F 100% 29.37 in 10.0 mi North 5.8 mph - N/A   Mostly Cloudy
1:36 AM 42.8 °F 41.1 °F 42.8 °F 100% 29.37 in 10.0 mi NNE 3.5 mph - N/A   Mostly Cloudy
1:56 AM 42.8 °F 39.3 °F 41.0 °F 93% 29.37 in 10.0 mi North 5.8 mph - N/A   Overcast
2:16 AM 42.8 °F 39.3 °F 41.0 °F 93% 29.37 in 10.0 mi NNE 5.8 mph - N/A   Mostly Cloudy
2:36 AM 42.8 °F 38.6 °F 41.0 °F 93% 29.36 in 10.0 mi NNE 6.9 mph - N/A   Clear
2:56 AM 41.0 °F 38.0 °F 39.2 °F 93% 29.36 in 1.8 mi SE 4.6 mph - N/A   Mostly Cloudy
3:16 AM 39.2 °F - 37.4 °F 93% 29.36 in 0.5 mi Calm Calm - N/A   Overcast
3:36 AM 39.2 °F 37.0 °F 39.2 °F 100% 29.36 in 0.5 mi East 3.5 mph - N/A   Mostly Cloudy
3:56 AM 39.2 °F 35.9 °F 39.2 °F 100% 29.36 in 0.5 mi East 4.6 mph - N/A   Mostly Cloudy
4:16 AM 39.2 °F 35.9 °F 39.2 °F 100% 29.35 in 0.5 mi East 4.6 mph - N/A   Mostly Cloudy
4:36 AM 39.2 °F 34.2 °F 37.4 °F 93% 29.35 in 9.0 mi East 6.9 mph - N/A   Mostly Cloudy
4:56 AM 37.4 °F 31.4 °F 35.6 °F 93% 29.35 in 10.0 mi East 8.1 mph - N/A   Scattered Clouds
5:16 AM 35.6 °F 28.6 °F 33.8 °F 93% 29.35 in 3.0 mi East 9.2 mph - N/A   Scattered Clouds
5:36 AM 35.6 °F 29.2 °F 35.6 °F 100% 29.35 in 1.0 mi ENE 8.1 mph - N/A   Mostly Cloudy
5:56 AM 35.6 °F 29.2 °F 35.6 °F 100% 29.35 in 0.5 mi NE 8.1 mph - N/A   Mostly Cloudy
6:16 AM 37.4 °F 30.8 °F 37.4 °F 100% 29.35 in 10.0 mi ENE 9.2 mph - N/A   Mostly Cloudy
6:36 AM 37.4 °F 31.4 °F 37.4 °F 100% 29.35 in 10.0 mi ENE 8.1 mph - N/A   Overcast
6:56 AM 37.4 °F 32.1 °F 37.4 °F 100% 29.35 in 7.0 mi NE 6.9 mph - N/A   Overcast
7:16 AM 37.4 °F 32.1 °F 37.4 °F 100% 29.35 in 10.0 mi NNE 6.9 mph - N/A   Overcast
7:36 AM 37.4 °F 32.8 °F 37.4 °F 100% 29.34 in 10.0 mi NNE 5.8 mph - N/A   Mostly Cloudy
7:56 AM 37.4 °F 32.8 °F 37.4 °F 100% 29.34 in 10.0 mi NE 5.8 mph - N/A   Partly Cloudy
8:16 AM 37.4 °F 32.1 °F 37.4 °F 100% 29.34 in 10.0 mi ENE 6.9 mph - N/A   Clear
8:36 AM 39.2 °F 33.6 °F 37.4 °F 93% 29.34 in 10.0 mi East 8.1 mph - N/A   Mostly Cloudy
8:56 AM 39.2 °F 34.2 °F 37.4 °F 93% 29.34 in 10.0 mi East 6.9 mph - N/A   Mostly Cloudy
9:16 AM 39.2 °F 34.2 °F 37.4 °F 93% 29.34 in 10.0 mi East 6.9 mph - N/A   Overcast
9:36 AM 39.2 °F 34.2 °F 39.2 °F 100% 29.34 in 10.0 mi East 6.9 mph - N/A   Overcast
9:56 AM 41.0 °F 35.8 °F 41.0 °F 100% 29.34 in 10.0 mi NE 8.1 mph - N/A   Mostly Cloudy
10:16 AM 42.8 °F 38.0 °F 39.2 °F 87% 29.35 in 10.0 mi East 8.1 mph - N/A   Mostly Cloudy
10:36 AM 42.8 °F 38.0 °F 39.2 °F 87% 29.35 in 10.0 mi ENE 8.1 mph - N/A   Mostly Cloudy
10:56 AM 42.8 °F 38.6 °F 41.0 °F 93% 29.34 in 10.0 mi East 6.9 mph - N/A   Mostly Cloudy
11:36 AM 44.6 °F 40.2 °F 39.2 °F 81% 29.34 in 10.0 mi ENE 8.1 mph - N/A   Overcast
11:56 AM 46.4 °F 42.4 °F 39.2 °F 76% 29.34 in 10.0 mi NE 8.1 mph - N/A   Overcast
12:16 PM 46.4 °F 42.9 °F 39.2 °F 76% 29.34 in 10.0 mi NE 6.9 mph - N/A   Scattered Clouds
12:36 PM 48.2 °F - 39.2 °F 71% 29.33 in 10.0 mi ENE 10.4 mph - N/A   Clear
12:56 PM 48.2 °F - 39.2 °F 71% 29.33 in 10.0 mi NE 6.9 mph - N/A   Clear
1:16 PM 48.2 °F - 39.2 °F 71% 29.33 in 10.0 mi ENE 8.1 mph - N/A   Clear
1:36 PM 48.2 °F - 39.2 °F 71% 29.33 in 10.0 mi NE 9.2 mph - N/A   Clear
1:56 PM 50.0 °F - 39.2 °F 66% 29.32 in 10.0 mi ENE 6.9 mph - N/A   Clear
2:16 PM 50.0 °F - 39.2 °F 66% 29.31 in 10.0 mi ENE 9.2 mph - N/A   Clear
2:36 PM 51.8 °F - 39.2 °F 62% 29.31 in 10.0 mi ENE 4.6 mph - N/A   Clear
2:56 PM 51.8 °F - 37.4 °F 58% 29.31 in 10.0 mi NE 5.8 mph - N/A   Partly Cloudy
3:16 PM 51.8 °F - 37.4 °F 58% 29.30 in 10.0 mi ENE 6.9 mph - N/A   Clear
3:36 PM 51.8 °F - 37.4 °F 58% 29.30 in 10.0 mi East 5.8 mph - N/A   Clear
3:56 PM 51.8 °F - 37.4 °F 58% 29.29 in 10.0 mi East 8.1 mph - N/A   Clear
4:16 PM 51.8 °F - 37.4 °F 58% 29.29 in 10.0 mi ENE 9.2 mph - N/A   Clear
4:36 PM 51.8 °F - 37.4 °F 58% 29.29 in 10.0 mi East 10.4 mph - N/A   Clear
4:56 PM 51.8 °F - 37.4 °F 58% 29.29 in 10.0 mi East 8.1 mph - N/A   Clear
5:16 PM 51.8 °F - 37.4 °F 58% 29.29 in 10.0 mi ENE 8.1 mph - N/A   Partly Cloudy
5:36 PM 51.8 °F - 37.4 °F 58% 29.29 in 10.0 mi East 11.5 mph - N/A   Partly Cloudy
5:56 PM 51.8 °F - 37.4 °F 58% 29.29 in 10.0 mi East 9.2 mph - N/A   Clear
6:16 PM 51.8 °F - 37.4 °F 58% 29.28 in 10.0 mi East 6.9 mph - N/A   Clear
6:36 PM 51.8 °F - 37.4 °F 58% 29.28 in 10.0 mi East 10.4 mph - N/A   Clear
6:56 PM 50.0 °F - 37.4 °F 62% 29.28 in 10.0 mi East 10.4 mph - N/A   Clear
7:16 PM 48.2 °F - 37.4 °F 66% 29.28 in 10.0 mi East 5.8 mph - N/A   Clear
7:36 PM 46.4 °F 42.9 °F 37.4 °F 71% 29.29 in 10.0 mi North 6.9 mph - N/A   Clear
7:56 PM 46.4 °F 43.5 °F 37.4 °F 71% 29.29 in 10.0 mi NNE 5.8 mph - N/A   Clear
8:16 PM 46.4 °F 42.9 °F 37.4 °F 71% 29.29 in 10.0 mi NNE 6.9 mph - N/A   Clear
8:36 PM 44.6 °F 40.7 °F 37.4 °F 76% 29.30 in 10.0 mi NNE 6.9 mph - N/A   Clear
8:56 PM 44.6 °F 40.2 °F 37.4 °F 76% 29.30 in 10.0 mi NNE 8.1 mph - N/A   Clear
9:16 PM 44.6 °F 40.7 °F 37.4 °F 76% 29.30 in 10.0 mi NNE 6.9 mph - N/A   Clear
9:36 PM 42.8 °F 38.0 °F 37.4 °F 81% 29.30 in 10.0 mi NNE 8.1 mph - N/A   Clear
9:56 PM 42.8 °F 39.3 °F 37.4 °F 81% 29.30 in 10.0 mi NNE 5.8 mph - N/A   Clear
10:16 PM 42.8 °F 39.3 °F 37.4 °F 81% 29.30 in 10.0 mi NNE 5.8 mph - N/A   Clear
10:36 PM 42.8 °F - 37.4 °F 81% 29.31 in 10.0 mi Calm Calm - N/A   Clear
10:56 PM 41.0 °F 36.4 °F 37.4 °F 87% 29.31 in 10.0 mi NE 6.9 mph - N/A   Clear
11:16 PM 39.2 °F 34.2 °F 37.4 °F 93% 29.31 in 10.0 mi East 6.9 mph - N/A   Clear
11:36 PM 41.0 °F 37.1 °F 35.6 °F 81% 29.31 in 10.0 mi East 5.8 mph - N/A   Clear
11:56 PM 39.2 °F 35.0 °F 35.6 °F 87% 29.32 in 10.0 mi East 5.8 mph - N/A   Clear